createdAt,value
2022-10-30T00:01:54.009Z,13.57
2022-10-30T00:04:23.182Z,13.64
2022-10-30T00:06:50.613Z,13.52
2022-10-30T00:09:18.174Z,13.47
2022-10-30T00:11:45.613Z,13.53
2022-10-30T00:14:15.405Z,13.64
2022-10-30T00:16:42.863Z,13.59
2022-10-30T00:19:10.599Z,13.74
2022-10-30T00:21:39.396Z,13.72
2022-10-30T00:24:08.547Z,13.52
2022-10-30T00:26:36.350Z,13.51
2022-10-30T00:29:04.191Z,13.69
2022-10-30T00:31:31.648Z,13.68
2022-10-30T00:33:59.287Z,13.59
2022-10-30T00:36:26.738Z,13.64
2022-10-30T00:38:55.542Z,13.68
2022-10-30T00:41:25.034Z,13.65
2022-10-30T00:43:52.963Z,13.72
2022-10-30T00:46:32.020Z,13.74
2022-10-30T00:49:04.241Z,13.63
2022-10-30T00:51:33.990Z,13.73
2022-10-30T00:54:06.310Z,13.75
2022-10-30T00:56:33.924Z,13.72
2022-10-30T00:59:04.720Z,13.75
2022-10-30T01:01:36.770Z,13.63
2022-10-30T01:04:07.167Z,13.53
2022-10-30T01:06:36.569Z,13.47
2022-10-30T01:09:06.169Z,13.51
2022-10-30T01:11:33.722Z,13.57
2022-10-30T01:14:04.829Z,13.50
2022-10-30T01:16:56.087Z,13.48
2022-10-30T01:19:31.658Z,13.34
2022-10-30T01:22:19.537Z,13.33
2022-10-30T01:24:59.748Z,13.29
2022-10-30T01:27:36.792Z,13.29
2022-10-30T01:30:17.287Z,13.30
2022-10-30T01:32:58.369Z,13.19
2022-10-30T01:35:31.767Z,13.20
2022-10-30T01:38:06.469Z,13.14
2022-10-30T01:40:35.420Z,13.21
2022-10-30T01:43:02.873Z,13.25
2022-10-30T01:45:47.353Z,13.15
2022-10-30T01:48:35.425Z,13.31
2022-10-30T01:51:14.329Z,13.23
2022-10-30T01:53:52.619Z,13.19
2022-10-30T01:56:33.480Z,13.30
2022-10-30T01:59:08.150Z,13.18
2022-10-30T02:01:39.426Z,13.21
2022-10-30T02:04:09.204Z,12.88
2022-10-30T02:06:37.506Z,12.96
2022-10-30T02:09:05.097Z,12.89
2022-10-30T02:11:35.281Z,12.86
2022-10-30T02:14:06.122Z,12.91
2022-10-30T02:16:36.427Z,12.93
2022-10-30T02:19:03.917Z,12.89
2022-10-30T02:21:33.127Z,12.91
2022-10-30T02:24:00.599Z,12.98
2022-10-30T02:26:28.077Z,12.90
2022-10-30T02:28:55.709Z,12.79
2022-10-30T02:31:23.194Z,12.95
2022-10-30T02:33:51.062Z,12.94
2022-10-30T02:36:19.411Z,12.99
2022-10-30T02:38:48.588Z,13.03
2022-10-30T02:41:16.030Z,13.09
2022-10-30T02:43:43.524Z,13.04
2022-10-30T02:46:10.976Z,13.04
2022-10-30T02:48:38.414Z,13.05
2022-10-30T02:51:06.733Z,13.03
2022-10-30T02:53:35.318Z,13.10
2022-10-30T02:56:06.585Z,13.17
2022-10-30T02:58:34.081Z,13.13
2022-10-30T03:01:06.968Z,13.24
2022-10-30T03:03:34.709Z,13.30
2022-10-30T03:06:02.984Z,13.31
2022-10-30T03:08:30.892Z,13.27
2022-10-30T03:11:02.900Z,13.25
2022-10-30T03:13:33.654Z,13.28
2022-10-30T03:16:02.481Z,13.27
2022-10-30T03:18:29.975Z,13.27
2022-10-30T03:20:58.831Z,13.31
2022-10-30T03:23:26.681Z,13.45
2022-10-30T03:25:55.214Z,13.31
2022-10-30T03:28:23.132Z,13.38
2022-10-30T03:30:53.182Z,13.35
2022-10-30T03:33:20.641Z,13.31
2022-10-30T03:35:48.083Z,13.26
2022-10-30T03:38:15.558Z,13.37
2022-10-30T03:40:43.019Z,13.38
2022-10-30T03:43:11.041Z,13.25
2022-10-30T03:45:38.598Z,13.38
2022-10-30T03:48:07.667Z,13.42
2022-10-30T03:50:35.122Z,13.38
2022-10-30T03:53:03.388Z,13.38
2022-10-30T03:55:30.981Z,13.35
2022-10-30T03:57:58.970Z,13.38
2022-10-30T04:00:26.751Z,13.29
2022-10-30T04:02:54.261Z,13.26
2022-10-30T04:05:24.909Z,13.35
2022-10-30T04:07:57.091Z,13.39
2022-10-30T04:10:24.824Z,13.27
2022-10-30T04:12:52.835Z,13.22
2022-10-30T04:15:20.362Z,13.20
2022-10-30T04:17:51.406Z,13.23
2022-10-30T04:20:19.232Z,13.23
2022-10-30T04:22:48.744Z,13.23
2022-10-30T04:25:16.377Z,13.24
2022-10-30T04:27:44.921Z,13.19
2022-10-30T04:30:13.775Z,13.27
2022-10-30T04:32:47.283Z,13.31
2022-10-30T04:35:15.438Z,13.25
2022-10-30T04:37:42.954Z,13.26
2022-10-30T04:40:13.358Z,13.22
2022-10-30T04:42:40.813Z,13.10
2022-10-30T04:45:14.885Z,13.32
2022-10-30T04:47:42.977Z,13.19
2022-10-30T04:50:11.007Z,13.07
2022-10-30T04:52:39.527Z,13.07
2022-10-30T04:55:08.732Z,13.13
2022-10-30T04:57:37.615Z,12.92
2022-10-30T05:00:06.335Z,12.89
2022-10-30T05:02:35.871Z,12.75
2022-10-30T05:05:03.734Z,12.75
2022-10-30T05:07:31.188Z,12.78
2022-10-30T05:09:58.673Z,12.86
2022-10-30T05:12:26.139Z,12.96
2022-10-30T05:14:55.023Z,12.89
2022-10-30T05:17:22.639Z,13.02
2022-10-30T05:19:50.137Z,12.80
2022-10-30T05:22:17.603Z,12.80
2022-10-30T05:24:45.069Z,12.88
2022-10-30T05:27:12.525Z,12.89
2022-10-30T05:29:39.980Z,12.82
2022-10-30T05:32:08.826Z,12.90
2022-10-30T05:34:36.377Z,12.84
2022-10-30T05:37:03.933Z,12.85
2022-10-30T05:39:31.366Z,12.83
2022-10-30T05:41:58.822Z,12.85
2022-10-30T05:44:47.401Z,13.04
2022-10-30T05:47:18.424Z,12.97
2022-10-30T05:49:45.886Z,12.95
2022-10-30T05:52:13.320Z,13.17
2022-10-30T05:54:40.773Z,13.07
2022-10-30T05:57:08.244Z,13.10
2022-10-30T05:59:35.716Z,13.13
2022-10-30T06:02:06.744Z,13.16
2022-10-30T06:04:35.566Z,13.25
2022-10-30T06:07:03.048Z,13.26
2022-10-30T06:09:30.529Z,13.40
2022-10-30T06:11:58.541Z,13.35
2022-10-30T06:14:26.001Z,13.37
2022-10-30T06:16:53.439Z,13.31
2022-10-30T06:19:20.938Z,13.36
2022-10-30T06:21:49.782Z,13.43
2022-10-30T06:24:17.205Z,13.43
2022-10-30T06:26:44.666Z,13.40
2022-10-30T06:29:12.162Z,13.50
2022-10-30T06:31:39.615Z,13.49
2022-10-30T06:34:07.035Z,13.50
2022-10-30T06:36:34.594Z,13.39
2022-10-30T06:39:03.797Z,13.50
2022-10-30T06:41:31.274Z,13.50
2022-10-30T06:43:58.768Z,13.47
2022-10-30T06:46:30.547Z,13.62
2022-10-30T06:49:01.180Z,13.76
2022-10-30T06:51:30.281Z,13.82
2022-10-30T06:53:57.712Z,13.84
2022-10-30T06:56:26.581Z,13.90
2022-10-30T06:58:54.037Z,14.04
2022-10-30T07:01:25.583Z,14.14
2022-10-30T07:03:53.077Z,14.12
2022-10-30T07:06:20.714Z,14.25
2022-10-30T07:08:48.253Z,14.24
2022-10-30T07:11:15.731Z,14.26
2022-10-30T07:13:44.504Z,14.25
2022-10-30T07:16:12.189Z,14.24
2022-10-30T07:18:39.642Z,14.20
2022-10-30T07:21:07.331Z,14.28
2022-10-30T07:23:34.780Z,14.18
2022-10-30T07:26:04.136Z,14.17
2022-10-30T07:28:32.392Z,14.17
2022-10-30T07:31:01.518Z,14.18
2022-10-30T07:33:28.971Z,14.35
2022-10-30T07:35:56.466Z,14.36
2022-10-30T07:38:24.036Z,14.58
2022-10-30T07:40:54.140Z,14.78
2022-10-30T07:43:21.595Z,14.92
2022-10-30T07:45:49.136Z,14.89
2022-10-30T07:48:17.934Z,14.94
2022-10-30T07:50:45.375Z,14.97
2022-10-30T07:53:12.874Z,14.98
2022-10-30T07:55:40.614Z,15.00
2022-10-30T07:58:08.050Z,15.04
2022-10-30T08:00:35.771Z,14.99
2022-10-30T08:03:03.616Z,15.04
2022-10-30T08:05:32.839Z,15.07
2022-10-30T08:08:00.597Z,15.06
2022-10-30T08:10:28.560Z,15.12
2022-10-30T08:12:56.062Z,15.16
2022-10-30T08:15:24.276Z,15.29
2022-10-30T08:17:52.784Z,15.25
2022-10-30T08:20:22.817Z,15.21
2022-10-30T08:22:52.623Z,15.20
2022-10-30T08:25:21.982Z,15.13
2022-10-30T08:27:55.000Z,15.23
2022-10-30T08:31:19.242Z,15.18
2022-10-30T08:33:47.063Z,15.15
2022-10-30T08:36:14.612Z,15.38
2022-10-30T08:38:43.416Z,15.67
2022-10-30T08:41:11.124Z,15.86
2022-10-30T08:43:39.057Z,16.01
2022-10-30T08:46:06.922Z,16.13
2022-10-30T08:48:34.373Z,16.27
2022-10-30T08:51:01.991Z,16.33
2022-10-30T08:53:29.572Z,16.52
2022-10-30T08:55:58.401Z,16.65
2022-10-30T08:58:27.252Z,16.70
2022-10-30T09:01:00.158Z,16.85
2022-10-30T09:03:28.897Z,16.97
2022-10-30T09:05:59.025Z,17.05
2022-10-30T09:08:26.621Z,17.27
2022-10-30T09:10:55.844Z,17.33
2022-10-30T09:13:24.989Z,17.45
2022-10-30T09:15:54.304Z,17.45
2022-10-30T09:18:21.951Z,17.59
2022-10-30T09:20:49.978Z,17.64
2022-10-30T09:23:17.504Z,17.75
2022-10-30T09:25:44.955Z,17.81
2022-10-30T09:28:12.483Z,17.87
2022-10-30T09:30:41.337Z,17.99
2022-10-30T09:33:10.138Z,18.15
2022-10-30T09:35:37.588Z,18.28
2022-10-30T09:38:05.074Z,18.35
2022-10-30T09:40:45.281Z,18.11
2022-10-30T09:43:26.379Z,17.86
2022-10-30T09:46:10.129Z,17.66
2022-10-30T09:49:13.172Z,17.63
2022-10-30T09:52:03.745Z,17.93
2022-10-30T09:54:45.604Z,18.23
2022-10-30T09:57:22.684Z,18.46
2022-10-30T10:00:02.545Z,18.46
2022-10-30T10:02:37.048Z,18.58
2022-10-30T10:05:20.333Z,18.59
2022-10-30T10:07:50.594Z,18.40
2022-10-30T10:10:24.501Z,18.32
2022-10-30T10:12:58.724Z,18.22
2022-10-30T10:15:38.324Z,18.26
2022-10-30T10:18:15.886Z,18.41
2022-10-30T10:20:48.190Z,18.77
2022-10-30T10:23:19.949Z,19.01
2022-10-30T10:25:53.941Z,19.17
2022-10-30T10:28:48.494Z,19.52
2022-10-30T10:31:28.816Z,19.58
2022-10-30T10:34:15.922Z,19.70
2022-10-30T10:36:48.843Z,19.70
2022-10-30T10:39:33.522Z,19.85
2022-10-30T10:42:12.323Z,19.81
2022-10-30T10:44:50.293Z,19.71
2022-10-30T10:47:37.075Z,19.71
2022-10-30T10:50:19.114Z,19.57
2022-10-30T10:52:50.390Z,19.74
2022-10-30T10:55:21.777Z,20.06
2022-10-30T10:57:49.541Z,20.04
2022-10-30T11:00:19.310Z,19.98
2022-10-30T11:02:55.511Z,19.65
2022-10-30T11:05:32.510Z,19.56
2022-10-30T11:08:05.277Z,19.61
2022-10-30T11:10:32.732Z,19.65
2022-10-30T11:13:01.455Z,19.95
2022-10-30T11:15:40.713Z,20.18
2022-10-30T11:18:09.953Z,20.31
2022-10-30T11:20:44.042Z,20.44
2022-10-30T11:23:34.931Z,20.41
2022-10-30T11:26:03.166Z,20.57
2022-10-30T11:28:42.755Z,20.57
2022-10-30T11:31:23.087Z,20.63
2022-10-30T11:33:50.955Z,20.57
2022-10-30T11:36:22.981Z,20.72
2022-10-30T11:38:50.793Z,20.59
2022-10-30T11:41:19.237Z,20.66
2022-10-30T11:43:49.154Z,20.60
2022-10-30T11:46:23.519Z,20.71
2022-10-30T11:48:54.824Z,20.84
2022-10-30T11:51:36.829Z,20.96
2022-10-30T11:54:05.625Z,21.00
2022-10-30T11:56:35.586Z,20.93
2022-10-30T11:59:05.683Z,20.83
2022-10-30T12:01:36.529Z,20.80
2022-10-30T12:04:23.344Z,20.92
2022-10-30T12:07:08.177Z,20.88
2022-10-30T12:09:44.162Z,20.81
2022-10-30T12:12:13.281Z,20.77
2022-10-30T12:14:40.914Z,20.70
2022-10-30T12:17:08.466Z,20.71
2022-10-30T12:19:36.345Z,20.56
2022-10-30T12:22:08.972Z,20.57
2022-10-30T12:24:40.416Z,20.62
2022-10-30T12:27:18.190Z,20.67
2022-10-30T12:30:10.403Z,20.63
2022-10-30T12:32:49.010Z,20.65
2022-10-30T12:35:28.359Z,20.67
2022-10-30T12:37:59.787Z,20.63
2022-10-30T12:40:31.446Z,20.63
2022-10-30T12:43:04.726Z,20.65
2022-10-30T12:45:38.558Z,20.67
2022-10-30T12:48:16.525Z,20.60
2022-10-30T12:50:52.686Z,20.54
2022-10-30T12:53:30.032Z,20.60
2022-10-30T12:56:02.648Z,20.45
2022-10-30T12:58:38.406Z,20.63
2022-10-30T13:01:17.057Z,20.59
2022-10-30T13:03:52.455Z,20.56
2022-10-30T13:06:24.747Z,20.55
2022-10-30T13:09:05.790Z,20.52
2022-10-30T13:11:45.450Z,20.57
2022-10-30T13:14:17.017Z,20.65
2022-10-30T13:16:44.505Z,20.51
2022-10-30T13:19:13.828Z,20.45
2022-10-30T13:21:49.762Z,20.37
2022-10-30T13:24:24.558Z,20.42
2022-10-30T13:26:57.978Z,20.36
2022-10-30T13:29:30.750Z,20.31
2022-10-30T13:32:33.768Z,20.24
2022-10-30T13:35:15.714Z,20.18
2022-10-30T13:37:50.460Z,20.20
2022-10-30T13:40:29.381Z,20.16
2022-10-30T13:43:04.914Z,20.07
2022-10-30T13:45:59.136Z,20.01
2022-10-30T13:48:39.794Z,19.97
2022-10-30T13:51:30.239Z,19.89
2022-10-30T13:54:05.861Z,19.89
2022-10-30T13:56:36.203Z,19.85
2022-10-30T13:59:16.923Z,19.74
2022-10-30T14:01:54.467Z,19.80
2022-10-30T14:04:33.327Z,19.81
2022-10-30T14:07:16.800Z,19.72
2022-10-30T14:09:54.549Z,19.64
2022-10-30T14:12:54.049Z,19.66
2022-10-30T14:15:27.936Z,19.64
2022-10-30T14:18:30.940Z,19.40
2022-10-30T14:20:59.999Z,19.35
2022-10-30T14:23:33.526Z,19.45
2022-10-30T14:26:14.970Z,19.37
2022-10-30T14:28:45.487Z,19.32
2022-10-30T14:31:16.565Z,19.27
2022-10-30T14:33:47.436Z,19.07
2022-10-30T14:36:18.149Z,19.03
2022-10-30T14:38:55.382Z,18.96
2022-10-30T14:41:46.096Z,19.04
2022-10-30T14:44:25.498Z,18.97
2022-10-30T14:47:10.665Z,18.83
2022-10-30T14:49:47.505Z,18.60
2022-10-30T14:52:35.948Z,18.66
2022-10-30T14:55:19.653Z,18.69
2022-10-30T14:57:52.075Z,18.55
2022-10-30T15:00:47.890Z,18.63
2022-10-30T15:03:26.514Z,18.46
2022-10-30T15:05:56.770Z,18.36
2022-10-30T15:08:42.785Z,18.42
2022-10-30T15:11:36.032Z,18.38
2022-10-30T15:14:20.796Z,18.18
2022-10-30T15:16:52.351Z,18.10
2022-10-30T15:19:22.861Z,17.99
2022-10-30T15:21:54.153Z,17.84
2022-10-30T15:24:28.201Z,17.70
2022-10-30T15:27:02.053Z,17.67
2022-10-30T15:29:32.934Z,17.71
2022-10-30T15:32:03.802Z,17.59
2022-10-30T15:34:33.006Z,17.62
2022-10-30T15:37:00.456Z,17.55
2022-10-30T15:39:27.907Z,17.61
2022-10-30T15:41:58.342Z,17.64
2022-10-30T15:44:28.343Z,17.59
2022-10-30T15:46:57.754Z,17.40
2022-10-30T15:49:33.527Z,17.27
2022-10-30T15:52:03.590Z,17.35
2022-10-30T15:54:33.114Z,17.28
2022-10-30T15:57:42.848Z,17.21
2022-10-30T15:59:55.123Z,17.17
2022-10-30T16:02:24.601Z,17.26
2022-10-30T16:04:54.324Z,17.21
2022-10-30T16:07:24.254Z,17.05
2022-10-30T16:09:56.401Z,16.98
2022-10-30T16:12:28.375Z,16.89
2022-10-30T16:14:57.123Z,16.79
2022-10-30T16:17:26.428Z,16.85
2022-10-30T16:19:57.802Z,16.83
2022-10-30T16:22:28.923Z,16.69
2022-10-30T16:24:57.833Z,16.60
2022-10-30T16:27:27.318Z,16.53
2022-10-30T16:29:58.368Z,16.54
2022-10-30T16:32:28.526Z,16.39
2022-10-30T16:34:59.340Z,16.46
2022-10-30T16:37:33.036Z,16.37
2022-10-30T16:40:03.821Z,16.33
2022-10-30T16:42:31.466Z,16.25
2022-10-30T16:45:44.649Z,16.23
2022-10-30T16:48:27.563Z,16.07
2022-10-30T16:51:02.921Z,16.13
2022-10-30T16:53:31.495Z,16.05
2022-10-30T16:56:00.469Z,15.82
2022-10-30T16:58:30.957Z,15.87
2022-10-30T17:01:05.446Z,15.91
2022-10-30T17:03:37.498Z,15.99
2022-10-30T17:06:24.921Z,15.94
2022-10-30T17:08:53.799Z,15.86
2022-10-30T17:11:34.035Z,15.78
2022-10-30T17:14:04.932Z,15.67
2022-10-30T17:16:34.011Z,15.80
2022-10-30T17:19:24.418Z,15.63
2022-10-30T17:21:54.199Z,15.67
2022-10-30T17:24:24.033Z,15.45
2022-10-30T17:26:56.349Z,15.46
2022-10-30T17:29:44.979Z,15.45
2022-10-30T17:32:19.744Z,15.23
2022-10-30T17:34:47.616Z,15.34
2022-10-30T17:37:16.422Z,15.49
2022-10-30T17:39:43.859Z,15.26
2022-10-30T17:42:12.152Z,15.23
2022-10-30T17:44:39.776Z,15.22
2022-10-30T17:47:15.503Z,15.13
2022-10-30T17:49:43.239Z,15.19
2022-10-30T17:52:13.152Z,15.15
2022-10-30T17:54:42.822Z,15.15
2022-10-30T17:57:12.083Z,15.19
2022-10-30T17:59:39.847Z,15.21
2022-10-30T18:02:14.322Z,15.16
2022-10-30T18:04:42.980Z,15.21
2022-10-30T18:07:10.608Z,15.13
2022-10-30T18:09:38.221Z,15.20
2022-10-30T18:12:08.600Z,15.23
2022-10-30T18:14:36.095Z,15.03
2022-10-30T18:17:03.572Z,14.98
2022-10-30T18:19:31.509Z,15.04
2022-10-30T18:21:58.979Z,15.00
2022-10-30T18:24:26.829Z,14.93
2022-10-30T18:26:54.875Z,14.94
2022-10-30T18:29:23.837Z,14.84
2022-10-30T18:31:51.293Z,14.95
2022-10-30T18:34:25.278Z,14.83
2022-10-30T18:36:52.743Z,14.68
2022-10-30T18:39:20.340Z,14.75
2022-10-30T18:41:49.406Z,14.76
2022-10-30T18:44:18.252Z,14.73
2022-10-30T18:46:47.052Z,14.75
2022-10-30T18:49:14.561Z,14.68
2022-10-30T18:51:42.730Z,14.72
2022-10-30T18:54:15.375Z,14.59
2022-10-30T18:56:42.889Z,14.48
2022-10-30T18:59:10.377Z,14.42
2022-10-30T19:01:38.105Z,14.46
2022-10-30T19:04:10.154Z,14.34
2022-10-30T19:06:38.726Z,14.34
2022-10-30T19:09:07.068Z,14.39
2022-10-30T19:11:37.279Z,14.27
2022-10-30T19:14:10.795Z,14.14
2022-10-30T19:16:38.578Z,13.99
2022-10-30T19:19:06.047Z,14.03
2022-10-30T19:21:39.106Z,13.90
2022-10-30T19:24:13.341Z,14.03
2022-10-30T19:26:40.652Z,14.07
2022-10-30T19:29:08.099Z,13.83
2022-10-30T19:31:35.585Z,13.92
2022-10-30T19:34:03.284Z,13.93
2022-10-30T19:36:33.569Z,13.81
2022-10-30T19:39:08.573Z,13.91
2022-10-30T19:41:36.293Z,13.79
2022-10-30T19:44:03.875Z,13.91
2022-10-30T19:46:31.396Z,13.89
2022-10-30T19:48:59.850Z,13.71
2022-10-30T19:51:28.341Z,13.63
2022-10-30T19:53:55.896Z,13.56
2022-10-30T19:56:24.963Z,13.60
2022-10-30T19:58:52.502Z,13.44
2022-10-30T20:01:20.094Z,13.28
2022-10-30T20:03:47.612Z,13.36
2022-10-30T20:06:15.767Z,13.49
2022-10-30T20:08:43.444Z,13.49
2022-10-30T20:11:10.928Z,13.44
2022-10-30T20:13:39.716Z,13.31
2022-10-30T20:16:07.919Z,13.38
2022-10-30T20:18:36.851Z,13.29
2022-10-30T20:21:08.157Z,13.40
2022-10-30T20:23:35.620Z,13.35
2022-10-30T20:26:05.283Z,13.35
2022-10-30T20:28:35.988Z,13.34
2022-10-30T20:31:05.770Z,13.30
2022-10-30T20:33:33.693Z,13.24
2022-10-30T20:36:01.189Z,13.10
2022-10-30T20:38:31.416Z,13.16
2022-10-30T20:40:59.995Z,12.94
2022-10-30T20:43:30.838Z,13.01
2022-10-30T20:45:58.507Z,13.16
2022-10-30T20:48:28.063Z,13.10
2022-10-30T20:50:56.550Z,12.90
2022-10-30T20:53:24.366Z,12.97
2022-10-30T20:55:52.068Z,13.10
2022-10-30T20:58:20.415Z,13.04
2022-10-30T21:00:48.133Z,12.99
2022-10-30T21:03:15.957Z,13.04
2022-10-30T21:05:46.307Z,12.99
2022-10-30T21:08:14.371Z,12.82
2022-10-30T21:10:42.885Z,12.61
2022-10-30T21:13:11.414Z,12.82
2022-10-30T21:15:40.013Z,12.85
2022-10-30T21:18:08.141Z,12.78
2022-10-30T21:20:36.697Z,12.80
2022-10-30T21:23:05.549Z,12.64
2022-10-30T21:25:33.141Z,12.68
2022-10-30T21:28:01.826Z,12.65
2022-10-30T21:30:29.673Z,12.64
2022-10-30T21:32:57.504Z,12.49
2022-10-30T21:35:25.156Z,12.64
2022-10-30T21:37:52.618Z,12.54
2022-10-30T21:40:21.441Z,12.63
2022-10-30T21:42:49.063Z,12.69
2022-10-30T22:02:15.722Z,12.05
2022-10-30T22:04:43.221Z,12.24
2022-10-30T22:07:10.830Z,12.20
2022-10-30T22:09:38.322Z,12.14
2022-10-30T22:12:06.267Z,12.22
2022-10-30T22:14:33.701Z,12.27
2022-10-30T22:17:01.184Z,12.19
2022-10-30T22:19:29.979Z,12.25
2022-10-30T22:21:57.458Z,12.33
2022-10-30T22:24:25.079Z,12.25
2022-10-30T22:26:52.597Z,12.12
2022-10-30T22:29:20.045Z,12.14
2022-10-30T22:31:47.517Z,11.93
2022-10-30T22:34:14.960Z,12.07
2022-10-30T22:36:43.810Z,11.94
2022-10-30T22:39:13.245Z,12.13
2022-10-30T22:41:41.579Z,11.88
2022-10-30T22:44:12.700Z,11.80
2022-10-30T22:46:40.962Z,11.84
2022-10-30T22:49:09.066Z,11.73
2022-10-30T22:51:39.844Z,11.61
2022-10-30T22:54:12.055Z,11.60
2022-10-30T22:56:40.550Z,11.53
2022-10-30T22:59:11.227Z,11.57
2022-10-30T23:01:39.471Z,11.42
2022-10-30T23:04:08.850Z,11.45
2022-10-30T23:06:36.739Z,11.34
2022-10-30T23:09:09.164Z,11.31
2022-10-30T23:11:36.947Z,11.34
2022-10-30T23:14:04.480Z,11.37
2022-10-30T23:16:31.965Z,11.67
2022-10-30T23:19:00.925Z,11.55
2022-10-30T23:21:30.893Z,11.51
2022-10-30T23:23:59.397Z,11.57
2022-10-30T23:26:30.347Z,11.40
2022-10-30T23:28:59.111Z,11.31
2022-10-30T23:31:28.303Z,11.20
2022-10-30T23:33:57.412Z,11.27
2022-10-30T23:36:25.411Z,11.26
2022-10-30T23:38:53.601Z,11.09
2022-10-30T23:41:21.102Z,10.90
2022-10-30T23:43:53.545Z,11.01
2022-10-30T23:46:21.000Z,11.10
2022-10-30T23:48:48.494Z,11.02
2022-10-30T23:51:16.534Z,11.00
2022-10-30T23:53:44.151Z,10.92
2022-10-30T23:56:12.642Z,10.97
2022-10-30T23:58:43.540Z,10.97
